createdAt,value
2023-04-24T00:01:51.462Z,18.92
2023-04-24T00:03:53.386Z,17.90
2023-04-24T00:05:55.940Z,18.48
2023-04-24T00:07:57.834Z,17.17
2023-04-24T00:09:59.791Z,18.65
2023-04-24T00:12:03.756Z,18.17
2023-04-24T00:14:05.621Z,17.83
2023-04-24T00:16:07.560Z,17.63
2023-04-24T00:18:09.354Z,18.48
2023-04-24T00:20:11.920Z,18.40
2023-04-24T00:22:14.439Z,19.35
2023-04-24T00:24:16.497Z,18.65
2023-04-24T00:26:18.239Z,17.35
2023-04-24T00:28:20.059Z,18.17
2023-04-24T00:30:21.979Z,16.95
2023-04-24T00:32:23.917Z,17.98
2023-04-24T00:34:26.197Z,17.15
2023-04-24T00:36:28.200Z,18.25
2023-04-24T00:38:32.467Z,18.30
2023-04-24T00:40:34.388Z,17.80
2023-04-24T00:42:36.321Z,18.65
2023-04-24T00:44:38.710Z,17.73
2023-04-24T00:46:40.989Z,18.35
2023-04-24T00:48:43.832Z,17.52
2023-04-24T00:50:46.775Z,17.35
2023-04-24T00:52:48.816Z,17.88
2023-04-24T00:54:51.194Z,16.58
2023-04-24T00:56:53.375Z,16.75
2023-04-24T00:58:56.691Z,16.40
2023-04-24T01:00:59.931Z,15.60
2023-04-24T01:03:06.010Z,16.48
2023-04-24T01:05:09.403Z,16.23
2023-04-24T01:07:12.665Z,16.58
2023-04-24T01:09:15.768Z,16.10
2023-04-24T01:11:18.853Z,16.45
2023-04-24T01:13:22.164Z,15.52
2023-04-24T01:15:23.896Z,15.43
2023-04-24T01:17:25.697Z,14.25
2023-04-24T01:19:27.580Z,15.68
2023-04-24T01:21:32.790Z,15.68
2023-04-24T01:23:34.730Z,16.55
2023-04-24T01:25:36.974Z,14.95
2023-04-24T01:27:38.817Z,14.70
2023-04-24T01:29:41.079Z,15.00
2023-04-24T01:31:43.859Z,14.38
2023-04-24T01:33:45.895Z,16.83
2023-04-24T01:35:48.167Z,15.15
2023-04-24T01:37:50.377Z,14.80
2023-04-24T01:39:52.070Z,15.05
2023-04-24T01:41:54.885Z,15.15
2023-04-24T01:43:58.465Z,14.45
2023-04-24T01:46:00.184Z,14.43
2023-04-24T01:48:05.454Z,14.07
2023-04-24T01:50:08.302Z,14.27
2023-04-24T01:52:10.109Z,14.45
2023-04-24T01:54:12.280Z,13.25
2023-04-24T01:56:15.484Z,14.75
2023-04-24T01:58:17.609Z,15.05
2023-04-24T02:00:19.485Z,14.38
2023-04-24T02:02:22.764Z,14.77
2023-04-24T02:04:25.039Z,14.02
2023-04-24T02:06:27.142Z,15.00
2023-04-24T02:08:29.037Z,14.38
2023-04-24T02:10:31.155Z,15.82
2023-04-24T02:12:33.431Z,15.40
2023-04-24T02:14:35.372Z,16.25
2023-04-24T02:16:37.377Z,15.80
2023-04-24T02:18:39.393Z,15.68
2023-04-24T02:20:41.492Z,16.08
2023-04-24T02:22:43.362Z,17.02
2023-04-24T02:24:45.351Z,15.75
2023-04-24T02:26:47.249Z,16.00
2023-04-24T02:28:49.226Z,15.07
2023-04-24T02:30:51.713Z,17.02
2023-04-24T02:32:53.590Z,17.15
2023-04-24T02:34:55.463Z,15.93
2023-04-24T02:36:57.668Z,16.27
2023-04-24T02:38:59.701Z,16.05
2023-04-24T02:41:03.091Z,16.23
2023-04-24T02:43:05.100Z,16.27
2023-04-24T02:45:07.787Z,16.25
2023-04-24T02:47:09.914Z,15.35
2023-04-24T02:49:13.162Z,14.85
2023-04-24T02:51:15.000Z,15.63
2023-04-24T02:53:16.975Z,14.70
2023-04-24T02:55:19.091Z,15.15
2023-04-24T02:57:21.076Z,14.40
2023-04-24T02:59:23.103Z,15.18
2023-04-24T03:01:25.036Z,14.43
2023-04-24T03:03:27.272Z,15.77
2023-04-24T03:05:29.285Z,13.82
2023-04-24T03:07:32.264Z,13.57
2023-04-24T03:09:34.093Z,14.35
2023-04-24T03:11:35.957Z,14.63
2023-04-24T03:13:37.890Z,15.07
2023-04-24T03:15:42.214Z,15.52
2023-04-24T03:17:44.261Z,15.60
2023-04-24T03:19:46.367Z,14.23
2023-04-24T03:21:51.109Z,15.20
2023-04-24T03:23:53.015Z,14.07
2023-04-24T03:25:56.371Z,15.00
2023-04-24T03:27:58.298Z,14.68
2023-04-24T03:30:00.234Z,14.75
2023-04-24T03:32:02.328Z,15.57
2023-04-24T03:34:04.339Z,14.57
2023-04-24T03:36:06.504Z,13.73
2023-04-24T03:38:08.620Z,15.25
2023-04-24T03:40:10.870Z,15.30
2023-04-24T03:42:16.294Z,14.35
2023-04-24T03:44:18.235Z,14.38
2023-04-24T03:46:20.182Z,13.00
2023-04-24T03:48:22.138Z,13.85
2023-04-24T03:50:24.338Z,12.90
2023-04-24T03:52:26.175Z,13.13
2023-04-24T03:54:28.132Z,12.43
2023-04-24T03:56:30.047Z,12.18
2023-04-24T03:58:31.986Z,13.05
2023-04-24T04:00:34.615Z,13.38
2023-04-24T04:02:36.777Z,14.52
2023-04-24T04:04:39.050Z,14.38
2023-04-24T04:06:41.398Z,12.52
2023-04-24T04:08:43.356Z,13.00
2023-04-24T04:10:45.356Z,13.52
2023-04-24T04:12:47.391Z,13.15
2023-04-24T04:14:49.288Z,14.30
2023-04-24T04:16:54.004Z,15.10
2023-04-24T04:18:59.771Z,13.48
2023-04-24T04:21:02.485Z,13.65
2023-04-24T04:23:04.484Z,14.07
2023-04-24T04:25:06.811Z,14.00
2023-04-24T04:27:09.310Z,14.70
2023-04-24T04:29:11.433Z,13.85
2023-04-24T04:31:14.244Z,13.38
2023-04-24T04:33:16.150Z,12.70
2023-04-24T04:35:18.460Z,12.43
2023-04-24T04:37:20.412Z,12.52
2023-04-24T04:39:22.551Z,13.48
2023-04-24T04:41:24.889Z,13.25
2023-04-24T04:43:27.440Z,12.98
2023-04-24T04:45:29.795Z,13.95
2023-04-24T04:47:33.720Z,13.52
2023-04-24T04:49:35.793Z,12.27
2023-04-24T04:51:37.914Z,13.10
2023-04-24T04:53:39.981Z,13.98
2023-04-24T04:55:44.261Z,13.10
2023-04-24T04:57:46.621Z,13.52
2023-04-24T04:59:48.958Z,12.52
2023-04-24T05:01:50.918Z,13.15
2023-04-24T05:03:55.448Z,12.50
2023-04-24T05:06:01.219Z,12.93
2023-04-24T05:08:04.484Z,11.63
2023-04-24T05:10:08.599Z,11.70
2023-04-24T05:12:10.564Z,13.50
2023-04-24T05:14:13.876Z,12.07
2023-04-24T05:16:16.076Z,12.18
2023-04-24T05:18:18.034Z,12.07
2023-04-24T05:20:19.976Z,12.93
2023-04-24T05:22:25.332Z,13.05
2023-04-24T05:24:27.223Z,12.35
2023-04-24T05:26:29.241Z,12.65
2023-04-24T05:28:34.301Z,12.32
2023-04-24T05:30:36.287Z,11.25
2023-04-24T05:32:38.224Z,11.57
2023-04-24T05:34:40.558Z,10.48
2023-04-24T05:36:42.664Z,10.63
2023-04-24T05:38:44.819Z,10.35
2023-04-24T05:40:47.274Z,9.35
2023-04-24T05:42:49.196Z,7.75
2023-04-24T05:44:53.290Z,7.85
2023-04-24T05:46:57.136Z,6.78
2023-04-24T05:48:59.315Z,5.90
2023-04-24T05:51:01.456Z,4.57
2023-04-24T05:53:03.742Z,4.65
2023-04-24T05:55:09.528Z,4.25
2023-04-24T05:57:11.775Z,4.80
2023-04-24T05:59:13.561Z,4.22
2023-04-24T06:01:15.380Z,4.50
2023-04-24T06:03:19.967Z,3.85
2023-04-24T06:05:25.018Z,4.35
2023-04-24T06:07:28.235Z,3.72
2023-04-24T06:09:30.114Z,3.65
2023-04-24T06:11:31.903Z,3.72
2023-04-24T06:13:33.693Z,3.45
2023-04-24T06:15:35.518Z,3.83
2023-04-24T06:17:37.318Z,3.85
2023-04-24T06:19:42.018Z,3.25
2023-04-24T06:21:44.149Z,3.75
2023-04-24T06:23:47.528Z,3.40
2023-04-24T06:25:49.383Z,3.85
2023-04-24T06:27:51.155Z,3.20
2023-04-24T06:29:55.643Z,3.33
2023-04-24T06:31:57.509Z,3.30
2023-04-24T06:33:59.538Z,3.30
2023-04-24T06:36:01.542Z,3.40
2023-04-24T06:38:03.345Z,2.55
2023-04-24T06:40:08.335Z,3.00
2023-04-24T06:42:10.669Z,3.47
2023-04-24T06:44:12.518Z,3.42
2023-04-24T06:46:14.389Z,3.22
2023-04-24T06:48:16.635Z,2.78
2023-04-24T06:50:20.910Z,2.67
2023-04-24T06:52:22.846Z,2.58
2023-04-24T06:54:24.691Z,2.53
2023-04-24T06:56:27.593Z,2.88
2023-04-24T06:58:29.409Z,2.38
2023-04-24T07:00:31.222Z,2.72
2023-04-24T07:02:33.148Z,2.83
2023-04-24T07:04:35.308Z,2.33
2023-04-24T07:06:38.610Z,2.58
2023-04-24T07:08:40.629Z,1.90
2023-04-24T07:10:42.568Z,1.63
2023-04-24T07:12:44.470Z,2.08
2023-04-24T07:14:46.386Z,2.50
2023-04-24T07:16:48.290Z,1.40
2023-04-24T07:18:50.890Z,1.33
2023-04-24T07:20:52.738Z,1.20
2023-04-24T07:22:55.945Z,1.25
2023-04-24T07:24:57.974Z,1.10
2023-04-24T07:26:59.906Z,1.00
2023-04-24T07:29:04.446Z,1.10
2023-04-24T07:31:06.349Z,1.10
2023-04-24T07:33:08.486Z,1.10
2023-04-24T07:35:11.026Z,1.10
2023-04-24T07:37:13.113Z,1.33
2023-04-24T07:39:15.111Z,1.10
2023-04-24T07:41:17.008Z,1.10
2023-04-24T07:43:19.471Z,1.55
2023-04-24T07:45:21.603Z,1.83
2023-04-24T07:47:23.738Z,1.40
2023-04-24T07:49:25.804Z,1.20
2023-04-24T07:51:29.271Z,1.75
2023-04-24T07:53:31.149Z,1.95
2023-04-24T07:55:32.988Z,1.45
2023-04-24T07:57:34.913Z,1.95
2023-04-24T07:59:36.910Z,1.67
2023-04-24T08:01:39.363Z,1.35
2023-04-24T08:03:41.618Z,1.30
2023-04-24T08:05:44.138Z,1.35
2023-04-24T08:07:49.872Z,1.60
2023-04-24T08:09:51.891Z,1.10
2023-04-24T08:11:54.535Z,1.55
2023-04-24T08:13:56.654Z,1.20
2023-04-24T08:15:58.870Z,1.30
2023-04-24T08:18:00.994Z,1.15
2023-04-24T08:20:06.247Z,1.88
2023-04-24T08:22:08.396Z,1.48
2023-04-24T08:24:10.304Z,1.60
2023-04-24T08:26:15.820Z,1.60
2023-04-24T08:28:21.240Z,1.42
2023-04-24T08:30:23.467Z,2.38
2023-04-24T08:32:30.795Z,1.65
2023-04-24T08:34:32.778Z,1.20
2023-04-24T08:36:43.966Z,1.40
2023-04-24T08:38:49.061Z,1.48
2023-04-24T08:40:51.069Z,1.95
2023-04-24T08:42:57.333Z,1.92
2023-04-24T08:44:59.263Z,1.85
2023-04-24T08:47:03.128Z,1.52
2023-04-24T08:49:05.993Z,2.00
2023-04-24T08:51:09.480Z,1.80
2023-04-24T08:53:12.462Z,1.58
2023-04-24T08:55:16.036Z,1.95
2023-04-24T08:57:19.448Z,1.98
2023-04-24T08:59:23.863Z,1.50
2023-04-24T09:01:27.999Z,1.40
2023-04-24T09:03:31.189Z,1.60
2023-04-24T09:05:34.785Z,2.05
2023-04-24T09:07:41.063Z,1.98
2023-04-24T09:09:45.901Z,1.67
2023-04-24T09:11:48.217Z,1.95
2023-04-24T09:13:51.163Z,2.60
2023-04-24T09:15:53.550Z,2.63
2023-04-24T09:17:55.766Z,1.80
2023-04-24T09:19:57.724Z,1.58
2023-04-24T09:21:59.654Z,2.25
2023-04-24T09:24:04.614Z,1.75
2023-04-24T09:26:07.146Z,2.25
2023-04-24T09:28:09.048Z,2.13
2023-04-24T09:30:11.848Z,1.92
2023-04-24T09:32:23.464Z,2.35
2023-04-24T09:34:27.635Z,2.08
2023-04-24T09:36:34.513Z,1.90
2023-04-24T09:38:39.009Z,2.60
2023-04-24T09:40:41.689Z,2.33
2023-04-24T09:42:53.846Z,2.45
2023-04-24T09:45:04.378Z,2.55
2023-04-24T09:47:11.335Z,2.95
2023-04-24T09:49:17.300Z,2.47
2023-04-24T09:51:36.552Z,3.25
2023-04-24T09:53:38.625Z,2.90
2023-04-24T09:55:46.178Z,2.53
2023-04-24T09:57:56.744Z,2.28
2023-04-24T09:59:58.853Z,2.67
2023-04-24T10:02:01.712Z,2.28
2023-04-24T10:04:04.217Z,1.88
2023-04-24T10:06:10.237Z,2.03
2023-04-24T10:08:13.647Z,2.63
2023-04-24T10:10:15.979Z,2.60
2023-04-24T10:12:18.112Z,2.45
2023-04-24T10:14:23.550Z,2.45
2023-04-24T10:16:25.750Z,2.05
2023-04-24T10:18:28.439Z,2.35
2023-04-24T10:20:32.275Z,1.92
2023-04-24T10:22:34.649Z,1.88
2023-04-24T10:24:38.593Z,1.90
2023-04-24T10:26:42.891Z,2.03
2023-04-24T10:28:47.100Z,1.83
2023-04-24T10:30:53.004Z,2.22
2023-04-24T10:32:55.480Z,1.88
2023-04-24T10:34:57.603Z,2.00
2023-04-24T10:37:00.152Z,1.55
2023-04-24T10:39:05.225Z,2.05
2023-04-24T10:41:11.774Z,2.05
2023-04-24T10:43:19.065Z,1.77
2023-04-24T10:45:23.286Z,1.40
2023-04-24T10:47:26.396Z,1.40
2023-04-24T10:49:31.339Z,1.70
2023-04-24T10:51:50.226Z,1.75
2023-04-24T10:53:52.954Z,1.73
2023-04-24T10:56:05.305Z,1.45
2023-04-24T10:58:07.455Z,1.42
2023-04-24T11:00:15.373Z,1.17
2023-04-24T11:02:18.532Z,1.83
2023-04-24T11:04:31.159Z,2.05
2023-04-24T11:06:36.185Z,1.40
2023-04-24T11:08:47.284Z,1.50
2023-04-24T11:10:59.366Z,1.65
2023-04-24T11:13:03.403Z,1.52
2023-04-24T11:15:11.824Z,1.50
2023-04-24T11:17:30.303Z,1.85
2023-04-24T11:19:32.281Z,1.55
2023-04-24T11:21:42.538Z,1.48
2023-04-24T11:23:45.826Z,1.30
2023-04-24T11:26:22.329Z,2.08
2023-04-24T11:28:25.858Z,1.58
2023-04-24T11:30:30.784Z,1.67
2023-04-24T11:32:35.323Z,2.10
2023-04-24T11:34:39.985Z,2.33
2023-04-24T11:36:45.310Z,2.33
2023-04-24T11:38:48.268Z,1.83
2023-04-24T11:40:50.887Z,2.30
2023-04-24T11:42:56.767Z,2.75
2023-04-24T11:44:58.947Z,2.28
2023-04-24T11:47:03.299Z,2.13
2023-04-24T11:49:05.461Z,2.50
2023-04-24T11:51:08.092Z,1.92
2023-04-24T11:53:10.145Z,2.28
2023-04-24T11:55:20.098Z,2.38
2023-04-24T11:57:24.053Z,2.58
2023-04-24T11:59:26.130Z,3.03
2023-04-24T12:01:28.065Z,2.35
2023-04-24T12:03:30.388Z,2.40
2023-04-24T12:05:32.863Z,1.92
2023-04-24T12:07:43.919Z,2.00
2023-04-24T12:09:53.763Z,2.00
2023-04-24T12:11:58.163Z,1.52
2023-04-24T12:14:11.586Z,2.00
2023-04-24T12:16:14.092Z,1.60
2023-04-24T12:18:18.157Z,1.70
2023-04-24T12:20:26.327Z,1.30
2023-04-24T12:22:28.575Z,1.55
2023-04-24T12:24:31.361Z,1.90
2023-04-24T12:26:33.221Z,2.08
2023-04-24T12:28:38.097Z,2.40
2023-04-24T12:30:45.450Z,1.60
2023-04-24T12:32:49.252Z,2.00
2023-04-24T12:34:52.832Z,1.60
2023-04-24T12:36:54.752Z,2.03
2023-04-24T12:38:57.553Z,2.10
2023-04-24T12:41:05.286Z,1.70
2023-04-24T12:43:17.761Z,1.88
2023-04-24T12:45:20.406Z,2.03
2023-04-24T12:47:22.480Z,1.90
2023-04-24T12:49:24.652Z,2.08
2023-04-24T12:51:26.619Z,2.30
2023-04-24T12:53:30.587Z,2.30
2023-04-24T12:55:32.776Z,2.10
2023-04-24T12:57:36.006Z,1.92
2023-04-24T12:59:38.053Z,1.85
2023-04-24T13:01:40.365Z,1.92
2023-04-24T13:03:42.812Z,2.40
2023-04-24T13:05:45.347Z,2.13
2023-04-24T13:07:47.510Z,2.03
2023-04-24T13:09:51.110Z,2.05
2023-04-24T13:11:53.201Z,1.58
2023-04-24T13:13:55.973Z,2.35
2023-04-24T13:15:58.063Z,2.40
2023-04-24T13:18:01.051Z,2.15
2023-04-24T13:20:04.012Z,2.05
2023-04-24T13:22:06.862Z,2.08
2023-04-24T13:24:10.121Z,1.70
2023-04-24T13:26:12.623Z,2.25
2023-04-24T13:28:14.792Z,1.88
2023-04-24T13:30:16.913Z,2.05
2023-04-24T13:32:19.225Z,2.00
2023-04-24T13:34:21.615Z,2.00
2023-04-24T13:36:23.841Z,1.45
2023-04-24T13:38:25.983Z,1.23
2023-04-24T13:40:28.860Z,1.48
2023-04-24T13:42:31.085Z,1.85
2023-04-24T13:44:33.206Z,1.42
2023-04-24T13:46:35.452Z,1.40
2023-04-24T13:48:37.771Z,1.52
2023-04-24T13:50:39.820Z,1.48
2023-04-24T13:52:41.989Z,1.15
2023-04-24T13:54:43.998Z,1.33
2023-04-24T13:56:46.197Z,1.42
2023-04-24T13:58:48.409Z,1.02
2023-04-24T14:00:50.587Z,1.60
2023-04-24T14:02:53.018Z,1.17
2023-04-24T14:04:55.485Z,1.45
2023-04-24T14:06:57.696Z,1.60
2023-04-24T14:09:00.554Z,1.45
2023-04-24T14:11:04.413Z,1.60
2023-04-24T14:13:07.640Z,1.30
2023-04-24T14:15:11.171Z,1.60
2023-04-24T14:17:13.280Z,1.30
2023-04-24T14:19:15.425Z,1.13
2023-04-24T14:21:17.610Z,1.50
2023-04-24T14:23:19.651Z,1.02
2023-04-24T14:25:23.342Z,1.20
2023-04-24T14:27:26.619Z,1.65
2023-04-24T14:29:28.760Z,1.40
2023-04-24T14:31:31.034Z,1.33
2023-04-24T14:33:33.405Z,1.75
2023-04-24T14:35:36.388Z,1.50
2023-04-24T14:37:38.785Z,1.23
2023-04-24T14:39:41.322Z,1.25
2023-04-24T14:41:43.395Z,1.33
2023-04-24T14:43:45.695Z,1.30
2023-04-24T14:45:47.994Z,1.55
2023-04-24T14:47:50.166Z,1.55
2023-04-24T14:49:52.570Z,0.98
2023-04-24T14:51:54.765Z,1.00
2023-04-24T14:53:57.973Z,1.00
2023-04-24T14:56:00.250Z,1.20
2023-04-24T14:58:03.140Z,0.90
2023-04-24T15:00:09.762Z,1.27
2023-04-24T15:02:16.602Z,1.70
2023-04-24T15:04:21.578Z,1.25
2023-04-24T15:06:23.892Z,1.73
2023-04-24T15:08:26.369Z,1.27
2023-04-24T15:10:30.458Z,1.48
2023-04-24T15:12:32.754Z,1.45
2023-04-24T15:14:35.111Z,1.20
2023-04-24T15:16:37.783Z,1.65
2023-04-24T15:18:40.132Z,1.30
2023-04-24T15:20:42.615Z,1.05
2023-04-24T15:22:44.812Z,1.27
2023-04-24T15:24:47.027Z,1.10
2023-04-24T15:26:49.271Z,1.45
2023-04-24T15:28:53.143Z,1.48
2023-04-24T15:30:55.245Z,1.88
2023-04-24T15:32:57.467Z,2.30
2023-04-24T15:35:07.930Z,2.15
2023-04-24T15:37:11.779Z,2.85
2023-04-24T15:39:13.880Z,2.55
2023-04-24T15:41:15.932Z,3.03
2023-04-24T15:43:18.285Z,2.40
2023-04-24T15:45:20.712Z,2.67
2023-04-24T15:47:22.856Z,2.30
2023-04-24T15:49:25.001Z,2.53
2023-04-24T15:51:27.825Z,2.40
2023-04-24T15:53:29.885Z,2.45
2023-04-24T15:55:32.032Z,2.55
2023-04-24T15:57:34.166Z,2.22
2023-04-24T15:59:36.812Z,2.13
2023-04-24T16:01:39.147Z,2.00
2023-04-24T16:03:41.534Z,1.75
2023-04-24T16:05:43.751Z,2.00
2023-04-24T16:07:45.926Z,1.70
2023-04-24T16:09:48.027Z,1.80
2023-04-24T16:11:50.423Z,1.40
2023-04-24T16:13:52.806Z,1.38
2023-04-24T16:15:54.960Z,1.75
2023-04-24T16:17:57.642Z,1.55
2023-04-24T16:19:59.840Z,1.55
2023-04-24T16:22:03.476Z,1.30
2023-04-24T16:24:06.139Z,1.52
2023-04-24T16:26:08.511Z,1.23
2023-04-24T16:28:10.731Z,1.30
2023-04-24T16:30:13.491Z,1.60
2023-04-24T16:32:15.580Z,1.38
2023-04-24T16:34:17.786Z,2.08
2023-04-24T16:36:21.726Z,1.85
2023-04-24T16:38:26.699Z,1.85
2023-04-24T16:40:28.870Z,1.35
2023-04-24T16:42:30.992Z,1.50
2023-04-24T16:44:33.226Z,1.48
2023-04-24T16:46:35.525Z,1.38
2023-04-24T16:48:37.651Z,1.52
2023-04-24T16:50:39.825Z,1.52
2023-04-24T16:52:42.470Z,1.70
2023-04-24T16:54:44.649Z,1.85
2023-04-24T16:56:46.928Z,1.50
2023-04-24T16:58:49.306Z,2.28
2023-04-24T17:00:51.857Z,1.80
2023-04-24T17:02:54.229Z,1.77
2023-04-24T17:04:56.552Z,1.50
2023-04-24T17:06:58.813Z,1.73
2023-04-24T17:09:01.209Z,2.10
2023-04-24T17:11:03.510Z,1.90
2023-04-24T17:13:05.826Z,1.88
2023-04-24T17:15:08.318Z,1.67
2023-04-24T17:17:10.791Z,1.92
2023-04-24T17:19:12.992Z,1.90
2023-04-24T17:21:15.191Z,1.88
2023-04-24T17:23:17.342Z,1.70
2023-04-24T17:25:19.606Z,1.98
2023-04-24T17:27:22.427Z,2.22
2023-04-24T17:29:24.493Z,2.53
2023-04-24T17:31:26.579Z,2.90
2023-04-24T17:33:30.845Z,2.85
2023-04-24T17:35:33.038Z,3.13
2023-04-24T17:37:36.167Z,3.25
2023-04-24T17:39:38.340Z,3.35
2023-04-24T17:41:40.937Z,4.15
2023-04-24T17:43:44.350Z,3.70
2023-04-24T17:45:47.970Z,4.05
2023-04-24T17:47:51.677Z,3.90
2023-04-24T17:49:54.005Z,4.13
2023-04-24T17:51:56.248Z,3.22
2023-04-24T17:53:58.454Z,3.13
2023-04-24T17:56:03.500Z,3.28
2023-04-24T17:58:05.971Z,3.15
2023-04-24T18:00:09.592Z,3.33
2023-04-24T18:02:11.775Z,3.95
2023-04-24T18:04:15.317Z,3.85
2023-04-24T18:06:18.967Z,4.25
2023-04-24T18:08:21.122Z,4.13
2023-04-24T18:10:24.058Z,3.75
2023-04-24T18:12:26.324Z,3.30
2023-04-24T18:14:28.731Z,3.60
2023-04-24T18:16:31.095Z,4.50
2023-04-24T18:18:33.323Z,3.55
2023-04-24T18:20:35.440Z,5.25
2023-04-24T18:22:37.916Z,4.47
2023-04-24T18:24:39.949Z,4.45
2023-04-24T18:26:42.087Z,4.63
2023-04-24T18:28:44.774Z,5.07
2023-04-24T18:30:47.698Z,4.13
2023-04-24T18:32:50.920Z,4.65
2023-04-24T18:34:53.128Z,4.45
2023-04-24T18:36:55.230Z,4.72
2023-04-24T18:38:57.600Z,4.35
2023-04-24T18:40:59.756Z,4.80
2023-04-24T18:43:02.102Z,5.15
2023-04-24T18:45:05.085Z,5.47
2023-04-24T18:47:08.417Z,4.68
2023-04-24T18:49:10.647Z,4.95
2023-04-24T18:51:13.400Z,5.13
2023-04-24T18:53:18.388Z,4.13
2023-04-24T18:55:20.520Z,4.03
2023-04-24T18:57:22.725Z,4.95
2023-04-24T18:59:24.848Z,5.15
2023-04-24T19:01:27.147Z,4.22
2023-04-24T19:03:30.175Z,4.80
2023-04-24T19:05:32.458Z,4.25
2023-04-24T19:07:34.612Z,5.10
2023-04-24T19:09:36.793Z,3.92
2023-04-24T19:11:38.979Z,4.78
2023-04-24T19:13:42.101Z,4.82
2023-04-24T19:15:44.297Z,4.40
2023-04-24T19:17:48.821Z,4.50
2023-04-24T19:19:51.359Z,3.97
2023-04-24T19:21:53.755Z,4.50
2023-04-24T19:23:57.265Z,4.38
2023-04-24T19:25:59.572Z,4.97
2023-04-24T19:28:01.776Z,5.40
2023-04-24T19:30:04.956Z,5.20
2023-04-24T19:32:07.255Z,4.75
2023-04-24T19:34:09.356Z,4.85
2023-04-24T19:36:11.632Z,5.13
2023-04-24T19:38:13.916Z,5.28
2023-04-24T19:40:16.199Z,5.28
2023-04-24T19:42:23.106Z,5.30
2023-04-24T19:44:30.867Z,5.10
2023-04-24T19:46:33.497Z,5.05
2023-04-24T19:48:35.892Z,5.13
2023-04-24T19:50:38.551Z,6.18
2023-04-24T19:52:40.794Z,5.40
2023-04-24T19:54:43.231Z,5.20
2023-04-24T19:56:45.326Z,4.28
2023-04-24T19:58:47.732Z,4.32
2023-04-24T20:00:50.165Z,4.50
2023-04-24T20:02:52.500Z,5.03
2023-04-24T20:04:54.864Z,4.10
2023-04-24T20:06:57.020Z,4.68
2023-04-24T20:08:59.730Z,4.00
2023-04-24T20:11:02.050Z,4.82
2023-04-24T20:13:04.326Z,4.05
2023-04-24T20:15:07.400Z,4.65
2023-04-24T20:17:09.583Z,4.30
2023-04-24T20:19:11.731Z,3.85
2023-04-24T20:21:13.971Z,4.72
2023-04-24T20:23:16.137Z,4.25
2023-04-24T20:25:18.381Z,3.92
2023-04-24T20:27:21.079Z,3.60
2023-04-24T20:29:23.346Z,4.28
2023-04-24T20:31:25.738Z,4.00
2023-04-24T20:33:28.978Z,3.65
2023-04-24T20:35:31.124Z,3.58
2023-04-24T20:37:33.365Z,3.00
2023-04-24T20:39:35.866Z,3.65
2023-04-24T20:41:39.029Z,3.83
2023-04-24T20:43:41.305Z,3.00
2023-04-24T20:45:43.570Z,2.58
2023-04-24T20:47:46.639Z,2.92
2023-04-24T20:49:49.759Z,2.78
2023-04-24T20:51:51.874Z,3.13
2023-04-24T20:53:54.091Z,3.08
2023-04-24T20:55:56.218Z,2.83
2023-04-24T20:58:00.429Z,3.17
2023-04-24T21:00:05.011Z,3.58
2023-04-24T21:02:07.670Z,3.45
2023-04-24T21:04:10.133Z,3.20
2023-04-24T21:06:12.328Z,2.55
2023-04-24T21:08:14.606Z,3.20
2023-04-24T21:10:17.003Z,4.07
2023-04-24T21:12:19.155Z,2.78
2023-04-24T21:14:21.263Z,3.25
2023-04-24T21:16:23.411Z,3.33
2023-04-24T21:18:26.620Z,3.85
2023-04-24T21:20:28.795Z,2.55
2023-04-24T21:22:31.000Z,2.53
2023-04-24T21:24:33.099Z,2.20
2023-04-24T21:26:35.675Z,2.25
2023-04-24T21:28:37.882Z,4.10
2023-04-24T21:30:40.275Z,2.97
2023-04-24T21:32:42.704Z,3.00
2023-04-24T21:34:45.024Z,3.20
2023-04-24T21:36:48.085Z,2.55
2023-04-24T21:38:50.231Z,2.55
2023-04-24T21:40:52.450Z,2.70
2023-04-24T21:42:54.606Z,2.83
2023-04-24T21:44:56.793Z,2.92
2023-04-24T21:46:59.707Z,2.63
2023-04-24T21:49:01.915Z,2.72
2023-04-24T21:51:04.265Z,2.53
2023-04-24T21:53:06.543Z,2.38
2023-04-24T21:55:09.446Z,2.90
2023-04-24T21:57:12.468Z,2.63
2023-04-24T21:59:15.127Z,2.25
2023-04-24T22:01:17.358Z,3.90
2023-04-24T22:03:19.764Z,3.03
2023-04-24T22:05:22.507Z,3.08
2023-04-24T22:07:24.696Z,2.40
2023-04-24T22:09:27.220Z,2.50
2023-04-24T22:11:29.467Z,2.80
2023-04-24T22:13:31.695Z,2.75
2023-04-24T22:15:33.819Z,2.85
2023-04-24T22:17:37.100Z,2.35
2023-04-24T22:19:41.015Z,1.88
2023-04-24T22:21:43.342Z,3.10
2023-04-24T22:23:45.682Z,4.05
2023-04-24T22:25:48.162Z,3.60
2023-04-24T22:27:50.881Z,2.33
2023-04-24T22:29:53.655Z,2.50
2023-04-24T22:31:57.057Z,2.47
2023-04-24T22:33:59.404Z,2.22
2023-04-24T22:36:01.925Z,2.20
2023-04-24T22:38:04.213Z,2.70
2023-04-24T22:40:08.685Z,2.45
2023-04-24T22:42:11.185Z,2.95
2023-04-24T22:44:13.594Z,2.92
2023-04-24T22:46:15.912Z,2.63
2023-04-24T22:48:18.688Z,3.13
2023-04-24T22:50:21.286Z,2.25
2023-04-24T22:52:23.372Z,2.00
2023-04-24T22:54:25.412Z,2.05
2023-04-24T22:56:27.784Z,2.95
2023-04-24T22:58:29.948Z,2.10
2023-04-24T23:00:32.327Z,2.35
2023-04-24T23:02:34.544Z,2.80
2023-04-24T23:04:36.799Z,2.65
2023-04-24T23:06:38.835Z,2.45
2023-04-24T23:08:41.094Z,2.75
2023-04-24T23:10:43.341Z,2.55
2023-04-24T23:12:45.594Z,2.55
2023-04-24T23:14:47.819Z,2.45
2023-04-24T23:16:49.947Z,1.88
2023-04-24T23:18:52.365Z,2.28
2023-04-24T23:20:54.577Z,2.15
2023-04-24T23:22:56.801Z,2.05
2023-04-24T23:24:59.016Z,2.70
2023-04-24T23:27:02.203Z,2.00
2023-04-24T23:29:04.714Z,2.50
2023-04-24T23:31:06.859Z,2.40
2023-04-24T23:33:09.131Z,1.83
2023-04-24T23:35:11.871Z,2.10
2023-04-24T23:37:14.065Z,2.22
2023-04-24T23:39:16.528Z,1.65
2023-04-24T23:41:20.015Z,2.08
2023-04-24T23:43:22.091Z,2.28
2023-04-24T23:45:24.523Z,2.90
2023-04-24T23:47:26.577Z,1.80
2023-04-24T23:49:28.795Z,2.45
2023-04-24T23:51:32.727Z,2.15
2023-04-24T23:53:35.158Z,1.52
2023-04-24T23:55:37.725Z,2.08
2023-04-24T23:57:39.944Z,1.38
2023-04-24T23:59:41.964Z,2.92
